createdAt,value
2023-04-15T00:01:38.999Z,11.90
2023-04-15T00:04:05.902Z,11.80
2023-04-15T00:06:33.052Z,11.80
2023-04-15T00:09:00.247Z,11.80
2023-04-15T00:11:27.245Z,11.70
2023-04-15T00:13:54.446Z,11.70
2023-04-15T00:16:21.405Z,11.60
2023-04-15T00:18:48.282Z,11.50
2023-04-15T00:21:15.121Z,11.50
2023-04-15T00:23:41.979Z,11.40
2023-04-15T00:26:08.786Z,11.40
2023-04-15T00:28:35.663Z,11.40
2023-04-15T00:31:02.527Z,11.30
2023-04-15T00:33:29.438Z,11.30
2023-04-15T00:35:56.360Z,11.30
2023-04-15T00:38:23.193Z,11.30
2023-04-15T00:40:50.404Z,11.20
2023-04-15T00:43:17.592Z,11.20
2023-04-15T00:45:44.598Z,11.10
2023-04-15T00:48:12.640Z,11.00
2023-04-15T00:50:39.491Z,10.90
2023-04-15T00:53:06.381Z,10.80
2023-04-15T00:55:33.263Z,10.70
2023-04-15T00:58:00.090Z,10.60
2023-04-15T01:00:27.411Z,10.70
2023-04-15T01:02:54.365Z,10.50
2023-04-15T01:05:21.481Z,10.50
2023-04-15T01:07:48.926Z,10.50
2023-04-15T01:10:15.974Z,10.40
2023-04-15T01:12:43.245Z,10.40
2023-04-15T01:15:11.133Z,10.40
2023-04-15T01:17:39.427Z,10.40
2023-04-15T01:20:10.081Z,10.40
2023-04-15T01:22:37.131Z,10.40
2023-04-15T01:25:33.310Z,10.30
2023-04-15T01:28:00.982Z,10.40
2023-04-15T01:30:27.794Z,10.40
2023-04-15T01:32:54.833Z,10.50
2023-04-15T01:35:22.581Z,10.50
2023-04-15T01:37:49.437Z,10.50
2023-04-15T01:40:16.634Z,10.50
2023-04-15T01:42:43.400Z,10.50
2023-04-15T01:45:10.916Z,10.50
2023-04-15T01:47:37.834Z,10.50
2023-04-15T01:50:05.456Z,10.50
2023-04-15T01:52:32.592Z,10.40
2023-04-15T01:54:59.382Z,10.40
2023-04-15T01:57:26.357Z,10.20
2023-04-15T01:59:53.165Z,10.30
2023-04-15T02:02:20.350Z,10.10
2023-04-15T02:04:47.260Z,10.20
2023-04-15T02:07:14.325Z,10.20
2023-04-15T02:09:41.629Z,10.10
2023-04-15T02:12:08.468Z,10.10
2023-04-15T02:14:35.647Z,10.10
2023-04-15T02:17:07.251Z,10.20
2023-04-15T02:19:37.569Z,10.10
2023-04-15T02:22:04.399Z,10.10
2023-04-15T02:24:31.591Z,10.10
2023-04-15T02:26:58.526Z,10.20
2023-04-15T02:29:25.541Z,10.10
2023-04-15T02:31:52.363Z,10.20
2023-04-15T02:34:19.311Z,10.20
2023-04-15T02:36:48.772Z,10.20
2023-04-15T02:39:17.072Z,10.20
2023-04-15T02:41:47.538Z,10.00
2023-04-15T02:44:14.419Z,10.10
2023-04-15T02:46:41.321Z,10.10
2023-04-15T02:49:08.583Z,10.10
2023-04-15T02:51:35.520Z,10.10
2023-04-15T02:54:02.339Z,10.10
2023-04-15T02:56:30.214Z,10.10
2023-04-15T02:58:57.550Z,10.10
2023-04-15T03:01:24.525Z,10.10
2023-04-15T03:03:51.548Z,10.10
2023-04-15T03:06:18.463Z,10.10
2023-04-15T03:08:45.665Z,10.00
2023-04-15T03:11:12.800Z,10.10
2023-04-15T03:13:41.749Z,10.00
2023-04-15T03:16:09.073Z,10.00
2023-04-15T03:18:36.110Z,9.90
2023-04-15T03:21:03.122Z,9.90
2023-04-15T03:23:32.111Z,9.90
2023-04-15T03:26:02.772Z,9.90
2023-04-15T03:28:30.794Z,9.80
2023-04-15T03:30:57.666Z,9.80
2023-04-15T03:33:24.615Z,9.90
2023-04-15T03:35:53.301Z,9.90
2023-04-15T03:38:20.548Z,10.00
2023-04-15T03:40:47.806Z,9.90
2023-04-15T03:43:14.812Z,9.90
2023-04-15T03:45:41.829Z,9.90
2023-04-15T03:48:17.451Z,9.90
2023-04-15T03:50:45.494Z,9.90
2023-04-15T03:53:12.419Z,9.90
2023-04-15T03:55:40.360Z,9.90
2023-04-15T03:58:07.495Z,9.90
2023-04-15T04:00:34.272Z,9.90
2023-04-15T04:03:01.331Z,9.90
2023-04-15T04:05:28.218Z,9.90
2023-04-15T04:07:55.058Z,9.90
2023-04-15T04:10:21.979Z,9.90
2023-04-15T04:12:48.820Z,9.90
2023-04-15T04:15:16.081Z,9.90
2023-04-15T04:17:43.037Z,9.90
2023-04-15T04:20:10.493Z,9.90
2023-04-15T04:22:41.296Z,9.90
2023-04-15T04:25:10.088Z,9.90
2023-04-15T04:27:37.549Z,9.90
2023-04-15T04:30:06.491Z,9.90
2023-04-15T04:32:33.404Z,9.90
2023-04-15T04:35:00.350Z,10.00
2023-04-15T04:37:27.278Z,9.90
2023-04-15T04:39:54.098Z,10.00
2023-04-15T04:42:20.975Z,9.90
2023-04-15T04:44:47.815Z,9.90
2023-04-15T04:47:14.871Z,10.00
2023-04-15T04:49:41.774Z,9.90
2023-04-15T04:52:10.151Z,9.90
2023-04-15T04:54:37.234Z,9.90
2023-04-15T04:57:04.138Z,10.00
2023-04-15T04:59:30.974Z,10.00
2023-04-15T05:01:57.974Z,10.00
2023-04-15T05:04:26.500Z,10.10
2023-04-15T05:06:53.552Z,10.00
2023-04-15T05:09:20.458Z,10.00
2023-04-15T05:11:47.252Z,10.10
2023-04-15T05:14:14.031Z,10.10
2023-04-15T05:16:40.807Z,10.00
2023-04-15T05:19:07.924Z,10.00
2023-04-15T05:21:34.829Z,10.00
2023-04-15T05:24:01.780Z,10.00
2023-04-15T05:26:28.944Z,10.10
2023-04-15T05:28:55.820Z,10.10
2023-04-15T05:31:22.855Z,10.00
2023-04-15T05:33:49.851Z,10.10
2023-04-15T05:36:16.639Z,10.10
2023-04-15T05:38:43.452Z,10.10
2023-04-15T05:41:10.360Z,10.10
2023-04-15T05:43:37.215Z,10.10
2023-04-15T05:46:04.301Z,10.10
2023-04-15T05:48:31.204Z,10.10
2023-04-15T05:50:58.560Z,10.20
2023-04-15T05:53:25.493Z,10.10
2023-04-15T05:55:52.542Z,10.20
2023-04-15T05:58:19.378Z,10.20
2023-04-15T06:00:46.413Z,10.30
2023-04-15T06:03:13.490Z,10.30
2023-04-15T06:05:40.758Z,10.20
2023-04-15T06:08:08.343Z,10.30
2023-04-15T06:10:36.806Z,10.50
2023-04-15T06:13:04.392Z,10.40
2023-04-15T06:15:31.754Z,10.40
2023-04-15T06:17:58.704Z,10.50
2023-04-15T06:20:25.733Z,10.50
2023-04-15T06:22:52.786Z,10.50
2023-04-15T06:25:19.911Z,10.60
2023-04-15T06:27:46.804Z,10.60
2023-04-15T06:30:13.632Z,10.60
2023-04-15T06:32:40.578Z,10.50
2023-04-15T06:35:07.869Z,10.60
2023-04-15T06:37:34.723Z,10.60
2023-04-15T06:40:01.707Z,10.60
2023-04-15T06:42:28.647Z,10.60
2023-04-15T06:44:55.806Z,10.60
2023-04-15T06:47:22.775Z,10.60
2023-04-15T06:49:49.756Z,10.60
2023-04-15T06:52:16.687Z,10.70
2023-04-15T06:54:43.631Z,10.70
2023-04-15T06:57:10.488Z,10.80
2023-04-15T06:59:37.348Z,10.80
2023-04-15T07:02:04.838Z,10.80
2023-04-15T07:04:32.826Z,10.90
2023-04-15T07:07:00.825Z,10.90
2023-04-15T07:09:27.605Z,11.00
2023-04-15T07:11:58.881Z,11.00
2023-04-15T07:14:25.730Z,11.10
2023-04-15T07:16:52.558Z,11.10
2023-04-15T07:19:19.483Z,11.10
2023-04-15T07:21:47.535Z,11.20
2023-04-15T07:24:18.044Z,11.20
2023-04-15T07:26:45.241Z,11.50
2023-04-15T07:29:12.055Z,11.40
2023-04-15T07:31:40.641Z,11.50
2023-04-15T07:34:07.936Z,11.60
2023-04-15T07:36:35.400Z,11.70
2023-04-15T07:39:04.137Z,11.80
2023-04-15T07:41:31.667Z,11.90
2023-04-15T07:43:58.880Z,12.00
2023-04-15T07:46:27.291Z,12.10
2023-04-15T07:48:54.376Z,12.20
2023-04-15T07:51:21.271Z,12.30
2023-04-15T07:53:50.431Z,12.50
2023-04-15T07:56:17.558Z,12.60
2023-04-15T07:58:44.419Z,12.70
2023-04-15T08:01:11.668Z,12.90
2023-04-15T08:03:39.576Z,13.00
2023-04-15T08:06:06.919Z,13.10
2023-04-15T08:08:33.817Z,13.20
2023-04-15T08:11:00.773Z,13.30
2023-04-15T08:13:31.666Z,13.40
2023-04-15T08:16:19.353Z,13.50
2023-04-15T08:18:47.602Z,13.60
2023-04-15T08:21:14.988Z,13.70
2023-04-15T08:23:42.696Z,13.80
2023-04-15T08:26:09.795Z,13.90
2023-04-15T08:28:41.591Z,14.00
2023-04-15T08:31:09.388Z,14.10
2023-04-15T08:33:36.951Z,14.10
2023-04-15T08:36:04.582Z,14.20
2023-04-15T08:38:31.827Z,14.30
2023-04-15T08:41:07.404Z,14.40
2023-04-15T08:43:39.776Z,14.40
2023-04-15T08:46:09.393Z,14.50
2023-04-15T08:48:40.591Z,14.50
2023-04-15T08:51:08.395Z,14.60
2023-04-15T08:53:35.714Z,14.70
2023-04-15T08:56:08.641Z,14.80
2023-04-15T08:58:37.031Z,14.90
2023-04-15T09:01:04.146Z,15.00
2023-04-15T09:03:32.104Z,15.10
2023-04-15T09:05:59.894Z,15.20
2023-04-15T09:08:26.924Z,15.30
2023-04-15T09:10:54.866Z,15.30
2023-04-15T09:13:22.021Z,15.50
2023-04-15T09:15:49.220Z,15.60
2023-04-15T09:18:29.854Z,15.70
2023-04-15T09:21:05.495Z,15.70
2023-04-15T09:23:34.063Z,15.80
2023-04-15T09:26:02.799Z,15.90
2023-04-15T09:28:30.290Z,16.00
2023-04-15T09:30:58.848Z,16.10
2023-04-15T09:33:28.250Z,16.10
2023-04-15T09:36:05.086Z,16.20
2023-04-15T09:38:32.888Z,16.20
2023-04-15T09:41:00.126Z,16.30
2023-04-15T09:43:45.768Z,16.30
2023-04-15T09:46:12.630Z,16.40
2023-04-15T09:48:39.597Z,16.40
2023-04-15T09:51:06.614Z,16.50
2023-04-15T09:53:36.938Z,16.50
2023-04-15T09:56:04.295Z,16.50
2023-04-15T09:58:35.085Z,16.50
2023-04-15T10:01:06.248Z,16.60
2023-04-15T10:03:38.720Z,16.60
2023-04-15T10:06:05.825Z,16.60
2023-04-15T10:08:34.988Z,16.70
2023-04-15T10:11:06.910Z,16.70
2023-04-15T10:13:36.072Z,16.70
2023-04-15T10:16:11.913Z,16.80
2023-04-15T10:18:44.297Z,16.80
2023-04-15T10:21:13.823Z,16.80
2023-04-15T10:23:41.507Z,16.90
2023-04-15T10:26:12.391Z,17.00
2023-04-15T10:28:39.495Z,17.10
2023-04-15T10:31:07.547Z,17.20
2023-04-15T10:33:36.299Z,17.20
2023-04-15T10:36:03.578Z,17.30
2023-04-15T10:38:46.713Z,17.40
2023-04-15T10:41:14.074Z,17.50
2023-04-15T10:44:01.647Z,17.60
2023-04-15T10:46:39.173Z,17.80
2023-04-15T10:49:24.284Z,17.80
2023-04-15T10:51:59.780Z,17.80
2023-04-15T10:54:26.557Z,17.90
2023-04-15T10:57:21.810Z,17.90
2023-04-15T11:00:12.913Z,17.90
2023-04-15T11:02:54.215Z,17.90
2023-04-15T11:05:41.764Z,18.00
2023-04-15T11:08:10.589Z,18.00
2023-04-15T11:10:37.352Z,18.10
2023-04-15T11:13:15.566Z,18.10
2023-04-15T11:15:47.225Z,18.20
2023-04-15T11:18:23.728Z,18.30
2023-04-15T11:20:57.617Z,18.40
2023-04-15T11:23:30.224Z,18.50
2023-04-15T11:25:58.575Z,18.60
2023-04-15T11:28:30.912Z,18.70
2023-04-15T11:31:07.339Z,18.80
2023-04-15T11:33:34.339Z,18.90
2023-04-15T11:36:01.950Z,19.00
2023-04-15T11:38:28.896Z,19.10
2023-04-15T11:40:56.261Z,19.20
2023-04-15T11:43:24.050Z,19.20
2023-04-15T11:46:01.899Z,19.30
2023-04-15T11:48:35.742Z,19.40
2023-04-15T11:51:07.859Z,19.50
2023-04-15T11:53:42.093Z,19.60
2023-04-15T11:56:11.568Z,19.60
2023-04-15T11:58:39.325Z,19.70
2023-04-15T12:01:07.399Z,19.80
2023-04-15T12:03:46.861Z,19.90
2023-04-15T12:06:22.567Z,19.90
2023-04-15T12:09:09.914Z,20.00
2023-04-15T12:11:48.341Z,20.10
2023-04-15T12:14:33.296Z,20.10
2023-04-15T12:17:07.190Z,20.30
2023-04-15T12:19:41.722Z,20.40
2023-04-15T12:22:16.212Z,20.50
2023-04-15T12:24:47.830Z,20.60
2023-04-15T12:27:17.435Z,20.60
2023-04-15T12:29:44.738Z,20.80
2023-04-15T12:32:16.276Z,20.90
2023-04-15T12:34:50.917Z,21.00
2023-04-15T12:37:18.494Z,21.10
2023-04-15T12:39:51.768Z,21.20
2023-04-15T12:42:19.190Z,21.40
2023-04-15T12:44:46.387Z,21.50
2023-04-15T12:47:14.053Z,21.60
2023-04-15T12:49:41.548Z,21.70
2023-04-15T12:52:08.418Z,21.80
2023-04-15T12:54:36.071Z,21.80
2023-04-15T12:57:06.921Z,21.80
2023-04-15T12:59:35.011Z,21.80
2023-04-15T13:02:02.970Z,21.70
2023-04-15T13:04:31.238Z,21.60
2023-04-15T13:06:58.615Z,21.50
2023-04-15T13:09:25.806Z,21.40
2023-04-15T13:11:53.083Z,21.40
2023-04-15T13:14:19.975Z,21.30
2023-04-15T13:16:47.197Z,21.30
2023-04-15T13:19:14.329Z,21.30
2023-04-15T13:21:41.521Z,21.30
2023-04-15T13:24:09.435Z,21.30
2023-04-15T13:26:36.624Z,21.30
2023-04-15T13:29:03.518Z,21.30
2023-04-15T13:31:30.542Z,21.40
2023-04-15T13:33:57.697Z,21.50
2023-04-15T13:36:24.881Z,21.50
2023-04-15T13:38:51.952Z,21.60
2023-04-15T13:41:19.964Z,21.60
2023-04-15T13:43:47.295Z,21.60
2023-04-15T13:46:14.736Z,21.60
2023-04-15T13:48:41.763Z,21.70
2023-04-15T13:51:08.693Z,21.60
2023-04-15T13:53:38.383Z,21.70
2023-04-15T13:56:08.271Z,21.70
2023-04-15T13:58:36.300Z,21.70
2023-04-15T14:01:05.676Z,21.70
2023-04-15T14:03:34.813Z,21.60
2023-04-15T14:06:02.069Z,21.70
2023-04-15T14:08:30.141Z,21.60
2023-04-15T14:10:57.842Z,21.60
2023-04-15T14:13:24.920Z,21.70
2023-04-15T14:15:52.069Z,21.60
2023-04-15T14:18:18.922Z,21.70
2023-04-15T14:20:46.174Z,21.70
2023-04-15T14:23:13.027Z,21.70
2023-04-15T14:25:39.850Z,21.70
2023-04-15T14:28:06.750Z,21.60
2023-04-15T14:30:33.972Z,21.60
2023-04-15T14:33:00.982Z,21.60
2023-04-15T14:35:27.976Z,21.50
2023-04-15T14:37:55.704Z,21.50
2023-04-15T14:40:22.869Z,21.50
2023-04-15T14:42:49.866Z,21.50
2023-04-15T14:45:17.657Z,21.40
2023-04-15T14:47:44.809Z,21.50
2023-04-15T14:50:11.818Z,21.60
2023-04-15T14:52:41.734Z,21.60
2023-04-15T14:55:12.848Z,21.60
2023-04-15T14:57:42.510Z,21.70
2023-04-15T15:00:14.504Z,21.60
2023-04-15T15:02:43.534Z,21.60
2023-04-15T15:05:11.991Z,21.60
2023-04-15T15:07:40.887Z,21.50
2023-04-15T15:10:08.325Z,21.40
2023-04-15T15:12:35.249Z,21.40
2023-04-15T15:15:12.152Z,21.30
2023-04-15T15:17:43.068Z,21.20
2023-04-15T15:20:10.523Z,21.20
2023-04-15T15:22:37.383Z,21.10
2023-04-15T15:25:05.184Z,21.00
2023-04-15T15:27:32.148Z,21.00
2023-04-15T15:29:59.335Z,21.00
2023-04-15T15:32:26.216Z,20.90
2023-04-15T15:34:53.340Z,20.90
2023-04-15T15:37:20.298Z,20.90
2023-04-15T15:39:47.721Z,20.90
2023-04-15T15:42:14.611Z,20.80
2023-04-15T15:44:41.404Z,20.80
2023-04-15T15:47:08.638Z,20.80
2023-04-15T15:49:35.497Z,20.80
2023-04-15T15:52:02.441Z,20.70
2023-04-15T15:54:29.322Z,20.70
2023-04-15T15:56:57.580Z,20.70
2023-04-15T15:59:25.554Z,20.70
2023-04-15T16:01:52.812Z,20.60
2023-04-15T16:04:20.068Z,20.60
2023-04-15T16:06:47.355Z,20.50
2023-04-15T16:09:14.212Z,20.50
2023-04-15T16:11:41.640Z,20.50
2023-04-15T16:14:08.389Z,20.40
2023-04-15T16:16:35.488Z,20.40
2023-04-15T16:19:05.561Z,20.30
2023-04-15T16:21:34.304Z,20.20
2023-04-15T16:24:04.850Z,20.10
2023-04-15T16:26:31.709Z,20.10
2023-04-15T16:28:59.846Z,20.00
2023-04-15T16:31:30.093Z,20.00
2023-04-15T16:33:57.812Z,19.90
2023-04-15T16:36:29.107Z,20.00
2023-04-15T16:38:55.941Z,19.90
2023-04-15T16:41:23.115Z,19.80
2023-04-15T16:43:50.092Z,19.80
2023-04-15T16:46:16.951Z,19.80
2023-04-15T16:48:43.886Z,19.70
2023-04-15T16:51:10.858Z,19.70
2023-04-15T16:53:37.637Z,19.70
2023-04-15T16:56:04.746Z,19.70
2023-04-15T16:58:32.017Z,19.60
2023-04-15T17:00:59.416Z,19.50
2023-04-15T17:03:26.530Z,19.40
2023-04-15T17:05:53.479Z,19.40
2023-04-15T17:08:20.365Z,19.30
2023-04-15T17:10:47.244Z,19.20
2023-04-15T17:13:14.068Z,19.10
2023-04-15T17:15:41.118Z,19.10
2023-04-15T17:18:08.656Z,19.00
2023-04-15T17:20:35.396Z,18.90
2023-04-15T17:23:02.201Z,18.90
2023-04-15T17:25:30.584Z,18.90
2023-04-15T17:27:57.380Z,18.80
2023-04-15T17:30:24.387Z,18.70
2023-04-15T17:32:52.359Z,18.60
2023-04-15T17:35:19.439Z,18.50
2023-04-15T17:37:46.655Z,18.40
2023-04-15T17:40:14.804Z,18.40
2023-04-15T17:42:41.874Z,18.30
2023-04-15T17:45:09.347Z,18.30
2023-04-15T17:47:36.203Z,18.20
2023-04-15T17:50:03.192Z,18.20
2023-04-15T17:52:30.132Z,18.10
2023-04-15T17:54:56.944Z,18.00
2023-04-15T17:57:27.832Z,18.00
2023-04-15T17:59:54.842Z,17.90
2023-04-15T18:02:27.852Z,17.90
2023-04-15T18:04:54.973Z,17.80
2023-04-15T18:07:34.061Z,17.80
2023-04-15T18:10:06.681Z,17.70
2023-04-15T18:12:33.634Z,17.70
2023-04-15T18:15:04.456Z,17.60
2023-04-15T18:17:31.384Z,17.60
2023-04-15T18:19:58.239Z,17.50
2023-04-15T18:22:25.064Z,17.50
2023-04-15T18:24:51.914Z,17.40
2023-04-15T18:27:18.787Z,17.40
2023-04-15T18:29:45.686Z,17.30
2023-04-15T18:32:12.616Z,17.20
2023-04-15T18:34:39.677Z,17.20
2023-04-15T18:37:06.590Z,17.10
2023-04-15T18:39:33.454Z,17.00
2023-04-15T18:42:00.294Z,16.90
2023-04-15T18:44:28.652Z,16.90
2023-04-15T18:46:55.517Z,16.80
2023-04-15T18:49:22.454Z,16.70
2023-04-15T18:51:49.577Z,16.70
2023-04-15T18:54:16.575Z,16.60
2023-04-15T18:56:43.547Z,16.50
2023-04-15T18:59:28.534Z,16.40
2023-04-15T19:01:59.796Z,16.30
2023-04-15T19:04:29.327Z,16.30
2023-04-15T19:06:56.711Z,16.20
2023-04-15T19:09:23.858Z,16.20
2023-04-15T19:11:50.888Z,16.00
2023-04-15T19:14:18.518Z,16.00
2023-04-15T19:16:45.329Z,15.90
2023-04-15T19:19:14.708Z,15.90
2023-04-15T19:21:41.958Z,15.90
2023-04-15T19:24:09.650Z,15.80
2023-04-15T19:26:36.920Z,15.80
2023-04-15T19:29:04.029Z,15.70
2023-04-15T19:31:31.064Z,15.70
2023-04-15T19:33:57.927Z,15.60
2023-04-15T19:36:24.820Z,15.60
2023-04-15T19:38:51.938Z,15.50
2023-04-15T19:41:18.704Z,15.50
2023-04-15T19:43:45.624Z,15.50
2023-04-15T19:46:13.482Z,15.40
2023-04-15T19:48:40.486Z,15.40
2023-04-15T19:51:07.304Z,15.40
2023-04-15T19:53:34.158Z,15.40
2023-04-15T19:56:01.943Z,15.30
2023-04-15T19:58:28.876Z,15.30
2023-04-15T20:00:56.680Z,15.30
2023-04-15T20:03:23.842Z,15.20
2023-04-15T20:05:50.728Z,15.20
2023-04-15T20:08:17.597Z,15.20
2023-04-15T20:10:44.681Z,15.10
2023-04-15T20:13:11.511Z,15.10
2023-04-15T20:15:38.483Z,15.10
2023-04-15T20:18:05.423Z,15.00
2023-04-15T20:20:34.668Z,15.00
2023-04-15T20:23:01.534Z,15.00
2023-04-15T20:25:28.542Z,14.90
2023-04-15T20:27:55.385Z,14.90
2023-04-15T20:30:22.229Z,14.90
2023-04-15T20:32:49.105Z,14.90
2023-04-15T20:35:16.089Z,14.80
2023-04-15T20:37:45.176Z,14.80
2023-04-15T20:40:13.944Z,14.80
2023-04-15T20:42:43.254Z,14.70
2023-04-15T20:45:10.658Z,14.70
2023-04-15T20:47:37.573Z,14.70
2023-04-15T20:50:04.807Z,14.60
2023-04-15T20:52:31.635Z,14.70
2023-04-15T20:54:58.506Z,14.60
2023-04-15T20:57:25.896Z,14.60
2023-04-15T20:59:52.760Z,14.50
2023-04-15T21:02:19.700Z,14.50
2023-04-15T21:04:47.218Z,14.50
2023-04-15T21:07:14.124Z,14.40
2023-04-15T21:09:42.904Z,14.40
2023-04-15T21:12:11.297Z,14.40
2023-04-15T21:14:40.523Z,14.40
2023-04-15T21:17:10.854Z,14.30
2023-04-15T21:19:38.592Z,14.30
2023-04-15T21:22:05.597Z,14.30
2023-04-15T21:24:32.640Z,14.20
2023-04-15T21:26:59.590Z,14.20
2023-04-15T21:29:26.464Z,14.20
2023-04-15T21:31:53.523Z,14.20
2023-04-15T21:34:20.423Z,14.20
2023-04-15T21:36:47.314Z,14.20
2023-04-15T21:39:14.100Z,14.20
2023-04-15T21:41:40.936Z,14.20
2023-04-15T21:44:07.845Z,14.20
2023-04-15T21:46:35.587Z,14.20
2023-04-15T21:49:03.493Z,14.20
2023-04-15T21:51:31.444Z,14.20
2023-04-15T21:53:59.341Z,14.20
2023-04-15T21:56:26.516Z,14.20
2023-04-15T21:58:59.412Z,14.20
2023-04-15T22:01:26.703Z,14.20
2023-04-15T22:03:53.850Z,14.20
2023-04-15T22:06:21.463Z,14.20
2023-04-15T22:08:56.960Z,14.20
2023-04-15T22:11:28.635Z,14.10
2023-04-15T22:13:57.173Z,14.20
2023-04-15T22:16:28.117Z,14.20
2023-04-15T22:18:55.999Z,14.20
2023-04-15T22:21:23.842Z,14.10
2023-04-15T22:23:52.098Z,14.10
2023-04-15T22:26:18.941Z,14.10
2023-04-15T22:28:45.793Z,14.10
2023-04-15T22:31:13.613Z,14.20
2023-04-15T22:33:40.614Z,14.20
2023-04-15T22:36:07.564Z,14.10
2023-04-15T22:38:34.424Z,14.10
2023-04-15T22:41:01.258Z,14.10
2023-04-15T22:43:28.101Z,14.10
2023-04-15T22:45:55.418Z,14.10
2023-04-15T22:48:23.122Z,14.10
2023-04-15T22:50:50.223Z,14.10
2023-04-15T22:53:17.728Z,14.10
2023-04-15T22:55:46.903Z,14.10
2023-04-15T22:58:15.256Z,14.10
2023-04-15T23:00:42.475Z,14.10
2023-04-15T23:03:09.475Z,14.00
2023-04-15T23:05:36.706Z,14.00
2023-04-15T23:08:04.012Z,14.00
2023-04-15T23:10:30.896Z,14.00
2023-04-15T23:12:57.812Z,14.00
2023-04-15T23:15:25.336Z,14.00
2023-04-15T23:17:52.283Z,14.00
2023-04-15T23:20:19.178Z,14.00
2023-04-15T23:22:46.267Z,14.00
2023-04-15T23:25:13.311Z,14.00
2023-04-15T23:27:40.206Z,14.00
2023-04-15T23:30:08.005Z,14.00
2023-04-15T23:32:35.364Z,14.00
2023-04-15T23:35:02.397Z,14.00
2023-04-15T23:37:31.494Z,13.90
2023-04-15T23:39:58.414Z,14.00
2023-04-15T23:42:26.016Z,13.90
2023-04-15T23:44:53.045Z,13.90
2023-04-15T23:47:21.333Z,14.00
2023-04-15T23:49:48.172Z,13.90
2023-04-15T23:52:15.134Z,13.90
2023-04-15T23:54:42.079Z,13.90
2023-04-15T23:57:08.969Z,13.90
2023-04-15T23:59:36.002Z,13.90
